createdAt,value
2023-03-02T00:01:33.623Z,76.36
2023-03-02T00:04:00.256Z,76.44
2023-03-02T00:06:28.353Z,76.65
2023-03-02T00:08:54.886Z,76.56
2023-03-02T00:11:21.626Z,76.79
2023-03-02T00:13:48.106Z,76.52
2023-03-02T00:16:14.670Z,76.35
2023-03-02T00:18:41.151Z,76.13
2023-03-02T00:21:10.449Z,76.56
2023-03-02T00:23:38.197Z,76.39
2023-03-02T00:26:05.850Z,76.35
2023-03-02T00:28:32.944Z,76.30
2023-03-02T00:30:59.571Z,76.37
2023-03-02T00:33:26.072Z,76.24
2023-03-02T00:35:52.582Z,76.15
2023-03-02T00:38:19.111Z,75.99
2023-03-02T00:40:46.435Z,76.51
2023-03-02T00:43:13.304Z,75.94
2023-03-02T00:45:39.873Z,76.03
2023-03-02T00:48:06.591Z,76.03
2023-03-02T00:50:33.074Z,75.88
2023-03-02T00:52:59.591Z,76.28
2023-03-02T00:55:26.066Z,75.83
2023-03-02T00:57:55.346Z,76.05
2023-03-02T01:00:23.034Z,76.03
2023-03-02T01:02:49.974Z,76.42
2023-03-02T01:05:16.657Z,76.24
2023-03-02T01:07:43.195Z,76.15
2023-03-02T01:10:10.352Z,75.92
2023-03-02T01:12:36.813Z,76.51
2023-03-02T01:15:03.635Z,76.37
2023-03-02T01:17:30.123Z,76.79
2023-03-02T01:19:57.084Z,76.92
2023-03-02T01:22:23.604Z,77.13
2023-03-02T01:24:50.249Z,77.20
2023-03-02T01:27:16.785Z,77.36
2023-03-02T01:29:43.384Z,77.03
2023-03-02T01:32:09.998Z,77.00
2023-03-02T01:34:36.585Z,77.81
2023-03-02T01:37:03.105Z,77.49
2023-03-02T01:39:29.614Z,77.13
2023-03-02T01:44:39.579Z,77.44
2023-03-02T01:47:23.283Z,77.79
2023-03-02T01:49:59.727Z,77.83
2023-03-02T01:52:26.733Z,77.86
2023-03-02T01:54:53.750Z,78.09
2023-03-02T01:57:26.963Z,77.67
2023-03-02T01:59:56.144Z,77.92
2023-03-02T02:02:22.566Z,78.30
2023-03-02T02:04:49.064Z,78.61
2023-03-02T02:07:15.601Z,78.41
2023-03-02T02:09:47.052Z,78.66
2023-03-02T02:12:15.275Z,78.37
2023-03-02T02:14:41.889Z,78.33
2023-03-02T02:17:08.322Z,78.11
2023-03-02T02:19:55.460Z,78.42
2023-03-02T02:22:44.653Z,78.32
2023-03-02T02:25:41.429Z,78.15
2023-03-02T02:28:14.474Z,78.33
2023-03-02T02:30:40.894Z,78.21
2023-03-02T02:33:07.394Z,78.54
2023-03-02T02:35:34.758Z,78.61
2023-03-02T02:38:05.755Z,78.53
2023-03-02T02:40:42.272Z,78.40
2023-03-02T02:43:11.857Z,78.34
2023-03-02T02:45:38.343Z,78.41
2023-03-02T02:48:05.053Z,78.26
2023-03-02T02:50:33.435Z,78.41
2023-03-02T02:53:02.958Z,78.48
2023-03-02T02:55:29.725Z,78.93
2023-03-02T02:57:57.610Z,78.69
2023-03-02T03:00:24.248Z,78.78
2023-03-02T03:03:00.149Z,79.26
2023-03-02T03:05:26.716Z,79.47
2023-03-02T03:07:53.242Z,80.34
2023-03-02T03:10:34.987Z,80.27
2023-03-02T03:13:01.910Z,79.66
2023-03-02T03:15:28.392Z,79.41
2023-03-02T03:17:56.236Z,79.52
2023-03-02T03:20:23.049Z,79.35
2023-03-02T03:22:49.539Z,79.90
2023-03-02T03:25:16.091Z,79.91
2023-03-02T03:27:42.999Z,79.76
2023-03-02T03:30:13.135Z,79.51
2023-03-02T03:32:39.772Z,79.34
2023-03-02T03:35:08.785Z,79.70
2023-03-02T03:37:35.326Z,80.53
2023-03-02T03:40:01.838Z,81.45
2023-03-02T03:42:28.360Z,82.59
2023-03-02T03:44:54.857Z,83.12
2023-03-02T03:47:21.351Z,83.02
2023-03-02T03:49:47.820Z,82.62
2023-03-02T03:52:14.343Z,82.73
2023-03-02T03:54:40.875Z,82.35
2023-03-02T03:57:07.383Z,82.99
2023-03-02T03:59:34.063Z,81.75
2023-03-02T04:02:01.352Z,81.71
2023-03-02T04:04:29.897Z,81.35
2023-03-02T04:06:56.361Z,81.31
2023-03-02T04:09:23.159Z,82.01
2023-03-02T04:11:51.332Z,82.15
2023-03-02T04:14:18.023Z,81.72
2023-03-02T04:16:44.645Z,82.31
2023-03-02T04:19:11.448Z,82.63
2023-03-02T04:21:39.159Z,82.28
2023-03-02T04:24:06.077Z,81.94
2023-03-02T04:26:33.164Z,81.68
2023-03-02T04:28:59.776Z,81.38
2023-03-02T04:31:26.387Z,81.07
2023-03-02T04:33:52.918Z,80.85
2023-03-02T04:36:19.644Z,81.22
2023-03-02T04:38:46.827Z,81.31
2023-03-02T04:41:13.312Z,81.88
2023-03-02T04:43:39.813Z,81.69
2023-03-02T04:46:06.373Z,81.40
2023-03-02T04:48:32.866Z,81.43
2023-03-02T04:50:59.346Z,81.03
2023-03-02T04:53:25.889Z,81.26
2023-03-02T04:55:52.346Z,80.75
2023-03-02T04:58:18.863Z,80.71
2023-03-02T05:00:45.392Z,80.73
2023-03-02T05:03:11.891Z,80.49
2023-03-02T05:05:38.474Z,80.38
2023-03-02T05:08:05.081Z,80.42
2023-03-02T05:10:31.556Z,80.35
2023-03-02T05:12:58.258Z,80.88
2023-03-02T05:15:26.592Z,81.52
2023-03-02T05:17:53.063Z,81.40
2023-03-02T05:20:19.779Z,81.66
2023-03-02T05:22:46.537Z,81.72
2023-03-02T05:25:13.059Z,82.11
2023-03-02T05:27:39.599Z,82.19
2023-03-02T05:30:06.872Z,81.86
2023-03-02T05:32:33.378Z,81.63
2023-03-02T05:35:00.444Z,81.70
2023-03-02T05:37:26.937Z,81.21
2023-03-02T05:39:53.418Z,81.08
2023-03-02T05:42:19.882Z,81.39
2023-03-02T05:44:46.442Z,81.00
2023-03-02T05:47:13.010Z,80.65
2023-03-02T05:49:39.532Z,80.59
2023-03-02T05:52:06.054Z,80.62
2023-03-02T05:54:32.608Z,80.63
2023-03-02T05:56:59.124Z,80.43
2023-03-02T05:59:25.702Z,80.47
2023-03-02T06:01:58.590Z,80.88
2023-03-02T06:04:25.646Z,81.15
2023-03-02T06:06:52.700Z,81.27
2023-03-02T06:09:19.172Z,81.32
2023-03-02T06:11:45.918Z,81.29
2023-03-02T06:14:12.444Z,81.63
2023-03-02T06:16:38.927Z,81.55
2023-03-02T06:19:06.165Z,81.26
2023-03-02T06:21:32.834Z,81.53
2023-03-02T06:23:59.346Z,81.44
2023-03-02T06:26:25.914Z,81.48
2023-03-02T06:28:53.881Z,81.46
2023-03-02T06:31:21.176Z,81.00
2023-03-02T06:33:47.878Z,80.99
2023-03-02T06:36:15.062Z,80.48
2023-03-02T06:38:41.588Z,80.04
2023-03-02T06:41:08.079Z,79.62
2023-03-02T06:43:34.574Z,79.69
2023-03-02T06:46:01.834Z,79.25
2023-03-02T06:48:28.390Z,79.25
2023-03-02T06:50:54.846Z,79.00
2023-03-02T06:53:23.293Z,78.41
2023-03-02T06:55:50.539Z,78.63
2023-03-02T06:58:17.232Z,78.41
2023-03-02T07:00:43.733Z,77.78
2023-03-02T07:03:10.226Z,77.78
2023-03-02T07:05:36.855Z,77.32
2023-03-02T07:08:03.510Z,77.34
2023-03-02T07:10:30.135Z,77.15
2023-03-02T07:12:56.735Z,77.07
2023-03-02T07:15:23.260Z,76.56
2023-03-02T07:17:50.012Z,76.65
2023-03-02T07:20:17.569Z,76.82
2023-03-02T07:22:44.273Z,76.45
2023-03-02T07:25:11.029Z,75.74
2023-03-02T07:27:37.796Z,75.93
2023-03-02T07:30:05.586Z,75.63
2023-03-02T07:32:32.277Z,75.70
2023-03-02T07:34:58.828Z,75.62
2023-03-02T07:37:25.379Z,75.31
2023-03-02T07:39:52.074Z,75.22
2023-03-02T07:42:18.659Z,74.85
2023-03-02T07:44:45.184Z,74.49
2023-03-02T07:47:12.023Z,74.03
2023-03-02T07:49:38.677Z,73.14
2023-03-02T07:52:06.683Z,73.37
2023-03-02T07:54:33.221Z,74.23
2023-03-02T07:56:59.758Z,73.65
2023-03-02T07:59:26.395Z,72.83
2023-03-02T08:01:53.059Z,72.46
2023-03-02T08:04:19.608Z,72.19
2023-03-02T08:06:46.141Z,72.14
2023-03-02T08:09:15.139Z,71.94
2023-03-02T08:11:43.003Z,71.77
2023-03-02T08:14:09.438Z,71.81
2023-03-02T08:16:36.027Z,71.30
2023-03-02T08:19:02.536Z,70.88
2023-03-02T08:21:29.161Z,70.81
2023-03-02T08:23:56.050Z,71.33
2023-03-02T08:26:22.624Z,70.48
2023-03-02T08:28:49.153Z,70.30
2023-03-02T08:31:15.933Z,70.34
2023-03-02T08:33:42.507Z,69.79
2023-03-02T08:36:12.475Z,69.14
2023-03-02T08:38:39.038Z,68.94
2023-03-02T08:41:07.188Z,68.61
2023-03-02T08:43:33.727Z,69.07
2023-03-02T08:46:00.403Z,67.42
2023-03-02T08:48:27.071Z,67.77
2023-03-02T08:51:01.388Z,67.42
2023-03-02T08:53:28.474Z,67.51
2023-03-02T08:55:54.979Z,67.84
2023-03-02T08:58:21.583Z,67.95
2023-03-02T09:00:48.214Z,67.49
2023-03-02T09:03:14.954Z,67.49
2023-03-02T09:05:41.458Z,66.66
2023-03-02T09:08:07.942Z,66.16
2023-03-02T09:10:34.441Z,66.52
2023-03-02T09:13:00.959Z,65.54
2023-03-02T09:15:27.537Z,65.71
2023-03-02T09:17:54.102Z,65.25
2023-03-02T09:20:20.778Z,65.58
2023-03-02T09:22:50.696Z,65.12
2023-03-02T09:25:18.520Z,64.22
2023-03-02T09:27:46.290Z,64.30
2023-03-02T09:30:13.801Z,64.48
2023-03-02T09:32:40.829Z,63.97
2023-03-02T09:35:08.090Z,64.79
2023-03-02T09:37:37.290Z,64.71
2023-03-02T09:40:04.371Z,63.01
2023-03-02T09:42:54.520Z,63.70
2023-03-02T09:45:39.412Z,63.04
2023-03-02T09:48:11.255Z,63.16
2023-03-02T09:50:41.021Z,61.48
2023-03-02T09:53:16.568Z,61.43
2023-03-02T09:55:43.876Z,62.00
2023-03-02T09:58:16.092Z,62.83
2023-03-02T10:00:43.978Z,62.33
2023-03-02T10:03:23.469Z,61.96
2023-03-02T10:05:54.190Z,61.09
2023-03-02T10:08:24.873Z,61.20
2023-03-02T10:11:04.657Z,59.81
2023-03-02T10:13:47.571Z,60.70
2023-03-02T10:16:35.502Z,60.49
2023-03-02T10:19:17.325Z,59.96
2023-03-02T10:21:47.897Z,60.40
2023-03-02T10:24:31.768Z,59.75
2023-03-02T10:27:00.452Z,59.50
2023-03-02T10:29:29.885Z,60.68
2023-03-02T10:32:13.120Z,59.66
2023-03-02T10:34:39.649Z,59.26
2023-03-02T10:37:14.787Z,59.25
2023-03-02T10:39:41.637Z,59.13
2023-03-02T10:42:13.377Z,59.06
2023-03-02T10:44:40.840Z,58.78
2023-03-02T10:47:10.904Z,58.34
2023-03-02T10:49:41.678Z,58.58
2023-03-02T10:52:21.927Z,58.47
2023-03-02T10:54:48.566Z,58.12
2023-03-02T10:57:28.501Z,58.05
2023-03-02T10:59:59.089Z,57.88
2023-03-02T11:02:27.477Z,60.05
2023-03-02T11:04:58.861Z,59.27
2023-03-02T11:07:27.837Z,59.50
2023-03-02T11:10:00.410Z,56.94
2023-03-02T11:12:27.252Z,56.95
2023-03-02T11:15:12.021Z,58.50
2023-03-02T11:17:38.584Z,58.33
2023-03-02T11:20:05.555Z,58.17
2023-03-02T11:23:15.172Z,56.46
2023-03-02T11:25:46.291Z,56.55
2023-03-02T11:28:19.635Z,56.79
2023-03-02T11:30:47.511Z,56.03
2023-03-02T11:33:24.359Z,56.57
2023-03-02T11:36:15.448Z,55.94
2023-03-02T11:38:50.085Z,55.36
2023-03-02T11:41:31.263Z,55.03
2023-03-02T11:43:59.958Z,55.41
2023-03-02T11:46:30.550Z,55.83
2023-03-02T11:48:59.845Z,55.51
2023-03-02T11:51:29.537Z,54.70
2023-03-02T11:53:59.392Z,55.08
2023-03-02T11:56:26.645Z,54.39
2023-03-02T11:58:56.267Z,53.64
2023-03-02T12:01:24.719Z,53.85
2023-03-02T12:03:51.291Z,53.64
2023-03-02T12:06:20.402Z,51.25
2023-03-02T12:08:47.645Z,47.82
2023-03-02T12:11:16.859Z,48.47
2023-03-02T12:13:44.493Z,47.72
2023-03-02T12:16:37.762Z,48.72
2023-03-02T12:19:16.196Z,50.89
2023-03-02T12:22:06.893Z,51.30
2023-03-02T12:24:34.476Z,52.14
2023-03-02T12:27:27.393Z,51.26
2023-03-02T12:30:09.860Z,52.69
2023-03-02T12:32:36.803Z,52.07
2023-03-02T12:35:14.454Z,53.13
2023-03-02T12:37:48.077Z,52.54
2023-03-02T12:40:25.443Z,52.03
2023-03-02T12:42:57.965Z,53.30
2023-03-02T12:46:01.742Z,51.17
2023-03-02T12:48:32.283Z,50.82
2023-03-02T12:51:03.226Z,50.64
2023-03-02T12:53:29.782Z,51.66
2023-03-02T12:55:56.389Z,52.21
2023-03-02T12:58:25.514Z,51.39
2023-03-02T13:00:53.879Z,52.31
2023-03-02T13:03:20.595Z,51.30
2023-03-02T13:05:50.203Z,50.49
2023-03-02T13:08:28.630Z,51.18
2023-03-02T13:10:56.700Z,52.54
2023-03-02T13:13:28.672Z,51.44
2023-03-02T13:15:56.119Z,51.51
2023-03-02T13:18:23.339Z,50.95
2023-03-02T13:20:50.209Z,51.75
2023-03-02T13:23:16.968Z,50.89
2023-03-02T13:25:54.708Z,51.52
2023-03-02T13:28:37.946Z,51.14
2023-03-02T13:31:23.810Z,49.87
2023-03-02T13:33:50.879Z,51.77
2023-03-02T13:36:22.487Z,51.36
2023-03-02T13:38:51.492Z,51.50
2023-03-02T13:41:28.209Z,51.73
2023-03-02T13:43:55.217Z,51.66
2023-03-02T13:46:22.161Z,51.71
2023-03-02T13:49:10.647Z,52.08
2023-03-02T13:51:45.643Z,51.15
2023-03-02T13:54:17.178Z,52.53
2023-03-02T13:56:43.931Z,51.53
2023-03-02T13:59:14.376Z,51.79
2023-03-02T14:01:44.248Z,51.17
2023-03-02T14:04:14.726Z,51.33
2023-03-02T14:06:41.267Z,51.42
2023-03-02T14:09:07.808Z,51.58
2023-03-02T14:11:36.142Z,51.06
2023-03-02T14:14:03.170Z,51.40
2023-03-02T14:16:29.932Z,51.86
2023-03-02T14:18:56.656Z,52.10
2023-03-02T14:21:24.219Z,51.65
2023-03-02T14:23:52.097Z,51.68
2023-03-02T14:26:38.539Z,51.59
2023-03-02T14:29:15.779Z,51.75
2023-03-02T14:31:42.309Z,51.52
2023-03-02T14:34:14.391Z,52.20
2023-03-02T14:36:41.098Z,51.66
2023-03-02T14:39:17.557Z,52.36
2023-03-02T14:41:53.458Z,51.30
2023-03-02T14:44:20.925Z,52.76
2023-03-02T14:46:47.549Z,52.66
2023-03-02T14:49:14.137Z,52.14
2023-03-02T14:51:40.926Z,52.49
2023-03-02T14:54:09.673Z,52.58
2023-03-02T14:56:36.205Z,53.24
2023-03-02T14:59:02.693Z,52.86
2023-03-02T15:01:29.304Z,52.74
2023-03-02T15:03:55.785Z,52.92
2023-03-02T15:06:24.847Z,53.72
2023-03-02T15:08:51.834Z,53.60
2023-03-02T15:11:18.321Z,53.94
2023-03-02T15:13:45.811Z,54.60
2023-03-02T15:16:12.688Z,53.75
2023-03-02T15:18:39.352Z,53.38
2023-03-02T15:21:06.094Z,52.85
2023-03-02T15:23:32.984Z,53.43
2023-03-02T15:26:00.421Z,52.69
2023-03-02T15:28:26.989Z,53.21
2023-03-02T15:30:53.517Z,53.16
2023-03-02T15:33:19.988Z,53.96
2023-03-02T15:35:46.549Z,53.46
2023-03-02T15:38:13.079Z,54.28
2023-03-02T15:40:39.599Z,54.36
2023-03-02T15:43:06.149Z,53.98
2023-03-02T15:45:32.657Z,53.68
2023-03-02T15:47:59.123Z,54.15
2023-03-02T15:50:25.659Z,53.59
2023-03-02T15:52:52.206Z,54.19
2023-03-02T15:55:18.814Z,54.34
2023-03-02T15:57:45.296Z,53.87
2023-03-02T16:00:13.497Z,55.01
2023-03-02T16:02:40.585Z,54.37
2023-03-02T16:05:07.640Z,54.84
2023-03-02T16:07:34.485Z,54.87
2023-03-02T16:10:00.995Z,55.22
2023-03-02T16:12:27.511Z,55.13
2023-03-02T16:14:54.122Z,55.38
2023-03-02T16:17:21.362Z,55.97
2023-03-02T16:19:47.832Z,55.53
2023-03-02T16:22:14.584Z,55.07
2023-03-02T16:24:41.994Z,54.71
2023-03-02T16:27:08.571Z,55.66
2023-03-02T16:29:35.096Z,55.20
2023-03-02T16:32:01.793Z,56.14
2023-03-02T16:34:28.386Z,56.48
2023-03-02T16:36:54.914Z,56.23
2023-03-02T16:39:21.414Z,56.15
2023-03-02T16:41:47.912Z,56.41
2023-03-02T16:44:14.670Z,56.78
2023-03-02T16:46:43.278Z,56.06
2023-03-02T16:49:10.979Z,56.75
2023-03-02T16:51:37.886Z,56.15
2023-03-02T16:54:04.362Z,56.18
2023-03-02T16:56:30.873Z,56.61
2023-03-02T16:58:59.979Z,56.47
2023-03-02T17:01:26.872Z,56.83
2023-03-02T17:03:53.431Z,56.86
2023-03-02T17:06:21.445Z,57.36
2023-03-02T17:08:48.029Z,57.80
2023-03-02T17:11:14.507Z,57.80
2023-03-02T17:13:41.217Z,58.76
2023-03-02T17:16:07.928Z,60.98
2023-03-02T17:18:34.657Z,61.04
2023-03-02T17:21:01.399Z,61.89
2023-03-02T17:23:28.097Z,62.53
2023-03-02T17:25:54.850Z,62.64
2023-03-02T17:28:21.363Z,63.32
2023-03-02T17:30:47.901Z,63.50
2023-03-02T17:33:14.427Z,64.18
2023-03-02T17:35:41.042Z,64.27
2023-03-02T17:38:07.550Z,64.07
2023-03-02T17:40:34.092Z,63.98
2023-03-02T17:43:00.618Z,63.89
2023-03-02T17:45:27.922Z,63.29
2023-03-02T17:47:54.702Z,64.22
2023-03-02T17:50:21.647Z,64.53
2023-03-02T17:52:48.414Z,64.32
2023-03-02T17:55:15.072Z,65.11
2023-03-02T17:57:41.727Z,65.16
2023-03-02T18:00:10.955Z,65.40
2023-03-02T18:02:37.452Z,66.31
2023-03-02T18:05:04.322Z,66.91
2023-03-02T18:07:30.821Z,67.91
2023-03-02T18:09:57.292Z,67.87
2023-03-02T18:12:23.872Z,68.91
2023-03-02T18:14:50.457Z,70.46
2023-03-02T18:17:19.914Z,70.72
2023-03-02T18:19:47.348Z,72.23
2023-03-02T18:22:13.885Z,72.63
2023-03-02T18:24:40.408Z,74.36
2023-03-02T18:27:07.013Z,74.58
2023-03-02T18:29:33.623Z,74.76
2023-03-02T18:32:00.232Z,74.67
2023-03-02T18:34:26.945Z,74.34
2023-03-02T18:36:53.470Z,74.68
2023-03-02T18:39:20.135Z,74.79
2023-03-02T18:41:46.746Z,75.52
2023-03-02T18:44:13.285Z,76.54
2023-03-02T18:46:39.910Z,77.43
2023-03-02T18:49:06.542Z,77.43
2023-03-02T18:51:33.074Z,76.98
2023-03-02T18:53:59.659Z,75.73
2023-03-02T18:56:26.210Z,74.29
2023-03-02T18:58:52.729Z,73.95
2023-03-02T19:01:19.634Z,73.78
2023-03-02T19:03:46.350Z,75.61
2023-03-02T19:06:13.135Z,75.56
2023-03-02T19:08:39.781Z,75.58
2023-03-02T19:11:06.477Z,75.85
2023-03-02T19:13:33.113Z,76.55
2023-03-02T19:16:01.824Z,77.16
2023-03-02T19:18:28.844Z,77.11
2023-03-02T19:20:55.648Z,78.09
2023-03-02T19:23:22.138Z,77.63
2023-03-02T19:25:48.789Z,78.44
2023-03-02T19:28:15.817Z,79.61
2023-03-02T19:30:42.271Z,79.36
2023-03-02T19:33:10.038Z,80.31
2023-03-02T19:35:37.584Z,79.82
2023-03-02T19:38:04.884Z,79.50
2023-03-02T19:40:32.092Z,79.10
2023-03-02T19:42:58.601Z,78.97
2023-03-02T19:45:28.602Z,79.83
2023-03-02T19:47:58.400Z,80.14
2023-03-02T19:50:25.306Z,79.24
2023-03-02T19:52:52.437Z,79.48
2023-03-02T19:55:19.631Z,79.36
2023-03-02T19:57:51.084Z,78.77
2023-03-02T20:00:19.198Z,78.80
2023-03-02T20:02:47.182Z,78.82
2023-03-02T20:05:13.725Z,78.05
2023-03-02T20:07:41.855Z,78.97
2023-03-02T20:10:09.513Z,78.95
2023-03-02T20:12:36.822Z,76.86
2023-03-02T20:15:04.711Z,76.09
2023-03-02T20:17:31.200Z,76.15
2023-03-02T20:19:58.507Z,75.06
2023-03-02T20:22:25.851Z,75.75
2023-03-02T20:24:52.373Z,76.29
2023-03-02T20:27:18.898Z,77.75
2023-03-02T20:29:45.598Z,77.92
2023-03-02T20:32:12.338Z,78.68
2023-03-02T20:34:39.310Z,78.33
2023-03-02T20:37:06.103Z,77.98
2023-03-02T20:39:34.893Z,77.26
2023-03-02T20:42:01.462Z,77.70
2023-03-02T20:44:30.929Z,78.35
2023-03-02T20:46:58.913Z,79.41
2023-03-02T20:49:26.751Z,80.47
2023-03-02T20:51:54.817Z,79.80
2023-03-02T20:54:22.486Z,80.11
2023-03-02T20:56:49.048Z,81.43
2023-03-02T20:59:15.553Z,80.21
2023-03-02T21:01:42.060Z,80.25
2023-03-02T21:04:08.583Z,80.95
2023-03-02T21:06:35.186Z,80.58
2023-03-02T21:09:02.602Z,81.43
2023-03-02T21:11:29.828Z,81.35
2023-03-02T21:13:56.847Z,80.82
2023-03-02T21:16:27.999Z,79.65
2023-03-02T21:18:57.279Z,79.63
2023-03-02T21:21:32.638Z,79.76
2023-03-02T21:24:07.599Z,80.62
2023-03-02T21:26:34.908Z,80.38
2023-03-02T21:29:01.481Z,79.64
2023-03-02T21:31:28.075Z,80.35
2023-03-02T21:33:54.746Z,80.41
2023-03-02T21:36:22.382Z,80.97
2023-03-02T21:38:49.941Z,81.36
2023-03-02T21:41:16.422Z,82.04
2023-03-02T21:43:42.892Z,81.74
2023-03-02T21:46:12.494Z,80.52
2023-03-02T21:48:39.014Z,80.10
2023-03-02T21:51:06.570Z,80.48
2023-03-02T21:53:33.251Z,80.31
2023-03-02T21:56:01.765Z,82.14
2023-03-02T21:58:28.552Z,81.74
2023-03-02T22:00:55.430Z,81.41
2023-03-02T22:03:21.923Z,81.34
2023-03-02T22:05:48.644Z,82.36
2023-03-02T22:08:17.570Z,83.05
2023-03-02T22:10:45.566Z,82.20
2023-03-02T22:13:17.849Z,82.17
2023-03-02T22:15:47.387Z,82.99
2023-03-02T22:18:21.626Z,83.21
2023-03-02T22:20:49.786Z,83.13
2023-03-02T22:23:19.149Z,82.94
2023-03-02T22:25:45.686Z,82.40
2023-03-02T22:28:22.818Z,83.31
2023-03-02T22:30:50.883Z,84.55
2023-03-02T22:33:21.108Z,83.35
2023-03-02T22:35:48.457Z,83.77
2023-03-02T22:38:25.748Z,84.35
2023-03-02T22:40:52.642Z,83.08
2023-03-02T22:43:26.075Z,81.96
2023-03-02T22:45:53.502Z,81.22
2023-03-02T22:48:21.507Z,81.17
2023-03-02T22:50:48.979Z,81.12
2023-03-02T22:53:31.800Z,81.21
2023-03-02T22:56:02.229Z,81.14
2023-03-02T22:58:29.328Z,81.29
2023-03-02T23:00:56.996Z,81.19
2023-03-02T23:03:26.302Z,80.99
2023-03-02T23:05:53.054Z,81.89
2023-03-02T23:08:23.483Z,83.08
2023-03-02T23:10:51.305Z,81.83
2023-03-02T23:13:19.227Z,82.42
2023-03-02T23:15:46.152Z,83.86
2023-03-02T23:18:25.477Z,84.87
2023-03-02T23:20:52.048Z,84.87
2023-03-02T23:23:18.780Z,86.39
2023-03-02T23:25:45.887Z,85.23
2023-03-02T23:28:12.552Z,83.79
2023-03-02T23:30:39.044Z,83.03
2023-03-02T23:33:05.626Z,82.44
2023-03-02T23:35:32.113Z,83.05
2023-03-02T23:37:58.632Z,83.88
2023-03-02T23:40:25.409Z,84.35
2023-03-02T23:42:51.901Z,83.80
2023-03-02T23:45:18.504Z,83.79
2023-03-02T23:47:45.169Z,84.93
2023-03-02T23:50:12.099Z,85.01
2023-03-02T23:52:39.227Z,84.46
2023-03-02T23:55:07.024Z,84.10
2023-03-02T23:57:33.511Z,83.74
